sensor_id;sensor_type;location;lat;lon;timestamp;pressure;altitude;pressure_sealevel;temperature;humidity
12624;BME280;6377;42.836;23.998;2023-02-11T00:02:09;97480.88;;;-8.12;100.00
12624;BME280;6377;42.836;23.998;2023-02-11T00:04:36;97532.81;;;-7.95;100.00
12624;BME280;6377;42.836;23.998;2023-02-11T00:07:05;97462.91;;;-8.12;100.00
12624;BME280;6377;42.836;23.998;2023-02-11T00:09:32;97536.00;;;-7.75;100.00
12624;BME280;6377;42.836;23.998;2023-02-11T00:11:59;97510.66;;;-8.01;100.00
12624;BME280;6377;42.836;23.998;2023-02-11T00:14:27;97508.72;;;-7.86;100.00
12624;BME280;6377;42.836;23.998;2023-02-11T00:16:54;97515.75;;;-7.96;100.00
12624;BME280;6377;42.836;23.998;2023-02-11T00:19:21;97514.00;;;-7.92;100.00
12624;BME280;6377;42.836;23.998;2023-02-11T00:21:49;97508.00;;;-7.95;100.00
12624;BME280;6377;42.836;23.998;2023-02-11T00:24:17;97505.53;;;-8.01;100.00
12624;BME280;6377;42.836;23.998;2023-02-11T00:26:45;97323.72;;;-9.45;100.00
12624;BME280;6377;42.836;23.998;2023-02-11T00:29:12;97436.34;;;-8.68;100.00
12624;BME280;6377;42.836;23.998;2023-02-11T00:31:39;97530.34;;;-8.01;100.00
12624;BME280;6377;42.836;23.998;2023-02-11T00:34:06;97441.84;;;-8.31;100.00
12624;BME280;6377;42.836;23.998;2023-02-11T00:36:34;97431.69;;;-8.37;100.00
12624;BME280;6377;42.836;23.998;2023-02-11T00:39:01;97370.91;;;-8.94;100.00
12624;BME280;6377;42.836;23.998;2023-02-11T00:41:30;97362.66;;;-9.16;100.00
12624;BME280;6377;42.836;23.998;2023-02-11T00:43:57;97478.41;;;-8.17;100.00
12624;BME280;6377;42.836;23.998;2023-02-11T00:46:24;97520.31;;;-8.16;100.00
12624;BME280;6377;42.836;23.998;2023-02-11T00:48:52;97492.03;;;-8.13;100.00
12624;BME280;6377;42.836;23.998;2023-02-11T00:51:22;97483.38;;;-8.06;100.00
12624;BME280;6377;42.836;23.998;2023-02-11T00:53:49;97461.38;;;-8.24;100.00
12624;BME280;6377;42.836;23.998;2023-02-11T00:56:16;97410.34;;;-8.40;100.00
12624;BME280;6377;42.836;23.998;2023-02-11T00:58:45;97419.78;;;-8.42;100.00
12624;BME280;6377;42.836;23.998;2023-02-11T01:01:13;97493.53;;;-7.99;100.00
12624;BME280;6377;42.836;23.998;2023-02-11T01:03:40;97484.91;;;-7.95;100.00
12624;BME280;6377;42.836;23.998;2023-02-11T01:06:08;97471.47;;;-8.10;100.00
12624;BME280;6377;42.836;23.998;2023-02-11T01:08:35;97461.28;;;-8.16;100.00
12624;BME280;6377;42.836;23.998;2023-02-11T01:11:05;97472.38;;;-8.16;100.00
12624;BME280;6377;42.836;23.998;2023-02-11T01:13:34;97469.75;;;-8.13;100.00
12624;BME280;6377;42.836;23.998;2023-02-11T01:16:05;97474.81;;;-8.05;100.00
12624;BME280;6377;42.836;23.998;2023-02-11T01:18:34;97473.88;;;-8.01;100.00
12624;BME280;6377;42.836;23.998;2023-02-11T01:21:02;97475.56;;;-7.99;100.00
12624;BME280;6377;42.836;23.998;2023-02-11T01:23:29;97314.50;;;-8.93;100.00
12624;BME280;6377;42.836;23.998;2023-02-11T01:25:57;97463.84;;;-8.16;100.00
12624;BME280;6377;42.836;23.998;2023-02-11T01:28:26;97456.59;;;-8.48;100.00
12624;BME280;6377;42.836;23.998;2023-02-11T01:30:54;97461.75;;;-8.48;100.00
12624;BME280;6377;42.836;23.998;2023-02-11T01:33:23;97460.19;;;-8.60;100.00
12624;BME280;6377;42.836;23.998;2023-02-11T01:35:50;97454.22;;;-8.62;100.00
12624;BME280;6377;42.836;23.998;2023-02-11T01:38:20;97453.34;;;-8.59;100.00
12624;BME280;6377;42.836;23.998;2023-02-11T01:40:49;97453.34;;;-8.58;100.00
12624;BME280;6377;42.836;23.998;2023-02-11T01:43:17;97492.59;;;-8.54;100.00
12624;BME280;6377;42.836;23.998;2023-02-11T01:46:00;97443.91;;;-8.56;100.00
12624;BME280;6377;42.836;23.998;2023-02-11T01:48:33;97454.00;;;-8.45;100.00
12624;BME280;6377;42.836;23.998;2023-02-11T01:51:06;97351.69;;;-9.29;100.00
12624;BME280;6377;42.836;23.998;2023-02-11T01:53:36;97339.03;;;-9.39;100.00
12624;BME280;6377;42.836;23.998;2023-02-11T01:56:22;97448.38;;;-8.70;100.00
12624;BME280;6377;42.836;23.998;2023-02-11T01:59:12;97442.53;;;-8.82;100.00
12624;BME280;6377;42.836;23.998;2023-02-11T02:01:45;97424.16;;;-9.16;100.00
12624;BME280;6377;42.836;23.998;2023-02-11T02:04:17;97445.50;;;-9.17;100.00
12624;BME280;6377;42.836;23.998;2023-02-11T02:06:49;97408.09;;;-9.32;100.00
12624;BME280;6377;42.836;23.998;2023-02-11T02:09:19;97452.16;;;-8.99;100.00
12624;BME280;6377;42.836;23.998;2023-02-11T02:11:48;97443.66;;;-9.04;100.00
12624;BME280;6377;42.836;23.998;2023-02-11T02:14:15;97447.13;;;-9.07;100.00
12624;BME280;6377;42.836;23.998;2023-02-11T02:16:43;97453.84;;;-8.98;100.00
12624;BME280;6377;42.836;23.998;2023-02-11T02:19:48;97446.00;;;-8.86;100.00
12624;BME280;6377;42.836;23.998;2023-02-11T02:22:51;97452.03;;;-8.90;100.00
12624;BME280;6377;42.836;23.998;2023-02-11T02:25:51;97452.00;;;-8.87;100.00
12624;BME280;6377;42.836;23.998;2023-02-11T02:28:43;97457.25;;;-8.98;100.00
12624;BME280;6377;42.836;23.998;2023-02-11T02:31:41;97457.00;;;-8.77;100.00
12624;BME280;6377;42.836;23.998;2023-02-11T02:34:18;97414.63;;;-9.05;100.00
12624;BME280;6377;42.836;23.998;2023-02-11T02:36:54;97370.00;;;-9.62;100.00
12624;BME280;6377;42.836;23.998;2023-02-11T02:39:25;97450.81;;;-9.34;100.00
12624;BME280;6377;42.836;23.998;2023-02-11T02:41:55;97451.66;;;-9.33;100.00
12624;BME280;6377;42.836;23.998;2023-02-11T02:44:23;97357.47;;;-9.88;100.00
12624;BME280;6377;42.836;23.998;2023-02-11T02:46:50;97456.72;;;-9.27;100.00
12624;BME280;6377;42.836;23.998;2023-02-11T02:49:19;97458.47;;;-9.31;100.00
12624;BME280;6377;42.836;23.998;2023-02-11T02:52:07;97445.69;;;-9.35;100.00
12624;BME280;6377;42.836;23.998;2023-02-11T02:57:58;97443.28;;;-9.50;100.00
12624;BME280;6377;42.836;23.998;2023-02-11T03:00:36;97456.16;;;-9.56;100.00
12624;BME280;6377;42.836;23.998;2023-02-11T03:03:19;97450.16;;;-9.52;100.00
12624;BME280;6377;42.836;23.998;2023-02-11T03:05:55;97461.16;;;-9.43;100.00
12624;BME280;6377;42.836;23.998;2023-02-11T03:08:27;97446.59;;;-9.36;100.00
12624;BME280;6377;42.836;23.998;2023-02-11T03:10:57;97423.59;;;-9.42;100.00
12624;BME280;6377;42.836;23.998;2023-02-11T03:13:27;97384.53;;;-9.66;100.00
12624;BME280;6377;42.836;23.998;2023-02-11T03:16:00;97444.75;;;-9.25;100.00
12624;BME280;6377;42.836;23.998;2023-02-11T03:18:31;97439.63;;;-9.27;100.00
12624;BME280;6377;42.836;23.998;2023-02-11T03:21:04;97440.38;;;-9.17;100.00
12624;BME280;6377;42.836;23.998;2023-02-11T03:23:37;97446.66;;;-9.42;100.00
12624;BME280;6377;42.836;23.998;2023-02-11T03:26:10;97442.28;;;-9.34;100.00
12624;BME280;6377;42.836;23.998;2023-02-11T03:28:43;97433.75;;;-9.35;100.00
12624;BME280;6377;42.836;23.998;2023-02-11T03:31:16;97450.69;;;-9.22;100.00
12624;BME280;6377;42.836;23.998;2023-02-11T03:33:53;97445.59;;;-9.25;100.00
12624;BME280;6377;42.836;23.998;2023-02-11T03:36:29;97443.84;;;-9.21;100.00
12624;BME280;6377;42.836;23.998;2023-02-11T03:38:59;97420.22;;;-9.46;100.00
12624;BME280;6377;42.836;23.998;2023-02-11T03:41:29;97433.91;;;-9.50;100.00
12624;BME280;6377;42.836;23.998;2023-02-11T03:43:58;97406.78;;;-9.69;100.00
12624;BME280;6377;42.836;23.998;2023-02-11T03:46:30;97438.13;;;-9.47;100.00
12624;BME280;6377;42.836;23.998;2023-02-11T03:49:02;97419.41;;;-9.52;100.00
12624;BME280;6377;42.836;23.998;2023-02-11T03:51:32;97443.22;;;-9.43;100.00
12624;BME280;6377;42.836;23.998;2023-02-11T03:54:02;97446.72;;;-9.48;100.00
12624;BME280;6377;42.836;23.998;2023-02-11T03:56:37;97455.13;;;-9.39;100.00
12624;BME280;6377;42.836;23.998;2023-02-11T03:59:05;97406.81;;;-9.72;100.00
12624;BME280;6377;42.836;23.998;2023-02-11T04:01:33;97428.00;;;-9.58;100.00
12624;BME280;6377;42.836;23.998;2023-02-11T04:04:01;97438.09;;;-9.40;100.00
12624;BME280;6377;42.836;23.998;2023-02-11T04:06:28;97395.56;;;-9.57;100.00
12624;BME280;6377;42.836;23.998;2023-02-11T04:08:56;97379.41;;;-9.64;100.00
12624;BME280;6377;42.836;23.998;2023-02-11T04:11:24;97407.41;;;-9.47;100.00
12624;BME280;6377;42.836;23.998;2023-02-11T04:13:51;97438.00;;;-9.31;100.00
12624;BME280;6377;42.836;23.998;2023-02-11T04:16:18;97381.56;;;-10.08;100.00
12624;BME280;6377;42.836;23.998;2023-02-11T04:18:46;97436.03;;;-9.93;100.00
12624;BME280;6377;42.836;23.998;2023-02-11T04:21:13;97435.16;;;-9.95;100.00
12624;BME280;6377;42.836;23.998;2023-02-11T04:23:40;97409.72;;;-10.10;100.00
12624;BME280;6377;42.836;23.998;2023-02-11T04:26:09;97433.56;;;-10.09;100.00
12624;BME280;6377;42.836;23.998;2023-02-11T04:28:36;97430.41;;;-10.34;100.00
12624;BME280;6377;42.836;23.998;2023-02-11T04:31:04;97410.00;;;-10.48;100.00
12624;BME280;6377;42.836;23.998;2023-02-11T04:33:31;97424.44;;;-10.35;100.00
12624;BME280;6377;42.836;23.998;2023-02-11T04:35:58;97430.31;;;-10.22;100.00
12624;BME280;6377;42.836;23.998;2023-02-11T04:38:25;97409.91;;;-10.33;100.00
12624;BME280;6377;42.836;23.998;2023-02-11T04:40:53;97405.72;;;-10.43;100.00
12624;BME280;6377;42.836;23.998;2023-02-11T04:43:21;97410.75;;;-10.32;100.00
12624;BME280;6377;42.836;23.998;2023-02-11T04:45:48;97399.63;;;-10.27;100.00
12624;BME280;6377;42.836;23.998;2023-02-11T04:48:15;97387.69;;;-10.26;100.00
12624;BME280;6377;42.836;23.998;2023-02-11T04:50:42;97402.13;;;-10.17;100.00
12624;BME280;6377;42.836;23.998;2023-02-11T04:53:09;97393.59;;;-10.16;100.00
12624;BME280;6377;42.836;23.998;2023-02-11T04:55:37;97396.81;;;-9.99;100.00
12624;BME280;6377;42.836;23.998;2023-02-11T04:58:04;97395.09;;;-9.96;100.00
12624;BME280;6377;42.836;23.998;2023-02-11T05:00:32;97367.06;;;-10.11;100.00
12624;BME280;6377;42.836;23.998;2023-02-11T05:02:59;97394.06;;;-9.80;100.00
12624;BME280;6377;42.836;23.998;2023-02-11T05:05:27;97405.94;;;-9.71;100.00
12624;BME280;6377;42.836;23.998;2023-02-11T05:07:54;97277.09;;;-10.52;100.00
12624;BME280;6377;42.836;23.998;2023-02-11T05:10:21;97402.47;;;-9.64;100.00
12624;BME280;6377;42.836;23.998;2023-02-11T05:12:48;97368.44;;;-9.77;100.00
12624;BME280;6377;42.836;23.998;2023-02-11T05:15:15;97397.22;;;-9.53;100.00
12624;BME280;6377;42.836;23.998;2023-02-11T05:17:44;97393.88;;;-9.57;100.00
12624;BME280;6377;42.836;23.998;2023-02-11T05:20:12;97398.09;;;-9.54;100.00
12624;BME280;6377;42.836;23.998;2023-02-11T05:22:39;97396.44;;;-9.58;100.00
12624;BME280;6377;42.836;23.998;2023-02-11T05:25:06;97394.94;;;-9.79;100.00
12624;BME280;6377;42.836;23.998;2023-02-11T05:27:34;97410.44;;;-9.96;100.00
12624;BME280;6377;42.836;23.998;2023-02-11T05:30:01;97389.91;;;-9.91;100.00
12624;BME280;6377;42.836;23.998;2023-02-11T05:32:28;97346.81;;;-10.32;100.00
12624;BME280;6377;42.836;23.998;2023-02-11T05:34:57;97395.97;;;-9.98;100.00
12624;BME280;6377;42.836;23.998;2023-02-11T05:37:24;97366.97;;;-10.00;100.00
12624;BME280;6377;42.836;23.998;2023-02-11T05:39:51;97382.97;;;-9.79;100.00
12624;BME280;6377;42.836;23.998;2023-02-11T05:42:19;97377.84;;;-9.77;100.00
12624;BME280;6377;42.836;23.998;2023-02-11T05:44:46;97384.63;;;-9.72;100.00
12624;BME280;6377;42.836;23.998;2023-02-11T05:47:13;97363.31;;;-9.77;100.00
12624;BME280;6377;42.836;23.998;2023-02-11T05:49:40;97392.16;;;-9.58;100.00
12624;BME280;6377;42.836;23.998;2023-02-11T05:52:09;97371.81;;;-9.73;100.00
12624;BME280;6377;42.836;23.998;2023-02-11T05:54:36;97397.28;;;-9.59;100.00
12624;BME280;6377;42.836;23.998;2023-02-11T05:57:03;97398.09;;;-9.56;100.00
12624;BME280;6377;42.836;23.998;2023-02-11T05:59:31;97387.22;;;-9.76;100.00
12624;BME280;6377;42.836;23.998;2023-02-11T06:01:58;97343.06;;;-9.96;100.00
12624;BME280;6377;42.836;23.998;2023-02-11T06:04:25;97330.38;;;-10.08;100.00
12624;BME280;6377;42.836;23.998;2023-02-11T06:06:52;97327.81;;;-10.07;100.00
12624;BME280;6377;42.836;23.998;2023-02-11T06:09:21;97374.50;;;-9.85;100.00
12624;BME280;6377;42.836;23.998;2023-02-11T06:11:48;97350.19;;;-10.29;100.00
12624;BME280;6377;42.836;23.998;2023-02-11T06:14:15;97346.78;;;-10.28;100.00
12624;BME280;6377;42.836;23.998;2023-02-11T06:16:42;97339.09;;;-10.24;100.00
12624;BME280;6377;42.836;23.998;2023-02-11T06:19:13;97359.41;;;-10.11;100.00
12624;BME280;6377;42.836;23.998;2023-02-11T06:21:40;97344.22;;;-10.24;100.00
12624;BME280;6377;42.836;23.998;2023-02-11T06:24:07;97379.72;;;-9.94;100.00
12624;BME280;6377;42.836;23.998;2023-02-11T06:26:36;97343.19;;;-10.10;100.00
12624;BME280;6377;42.836;23.998;2023-02-11T06:29:03;97364.28;;;-9.88;100.00
12624;BME280;6377;42.836;23.998;2023-02-11T06:31:30;97356.56;;;-9.81;100.00
12624;BME280;6377;42.836;23.998;2023-02-11T06:33:57;97388.72;;;-9.54;100.00
12624;BME280;6377;42.836;23.998;2023-02-11T06:36:25;97327.47;;;-9.75;100.00
12624;BME280;6377;42.836;23.998;2023-02-11T06:38:52;97342.56;;;-9.51;100.00
12624;BME280;6377;42.836;23.998;2023-02-11T06:41:19;97322.84;;;-9.43;100.00
12624;BME280;6377;42.836;23.998;2023-02-11T06:43:48;97350.69;;;-9.19;100.00
12624;BME280;6377;42.836;23.998;2023-02-11T06:46:15;97342.81;;;-9.02;100.00
12624;BME280;6377;42.836;23.998;2023-02-11T06:48:42;97332.53;;;-9.00;100.00
12624;BME280;6377;42.836;23.998;2023-02-11T06:51:11;97332.44;;;-8.93;100.00
12624;BME280;6377;42.836;23.998;2023-02-11T06:53:41;97389.25;;;-8.62;100.00
12624;BME280;6377;42.836;23.998;2023-02-11T06:56:12;97387.28;;;-8.43;100.00
12624;BME280;6377;42.836;23.998;2023-02-11T06:58:40;97327.75;;;-8.65;100.00
12624;BME280;6377;42.836;23.998;2023-02-11T07:01:10;97374.22;;;-8.28;100.00
12624;BME280;6377;42.836;23.998;2023-02-11T07:03:40;97378.75;;;-7.93;100.00
12624;BME280;6377;42.836;23.998;2023-02-11T07:06:11;97348.97;;;-8.04;100.00
12624;BME280;6377;42.836;23.998;2023-02-11T07:08:39;97379.97;;;-7.65;100.00
12624;BME280;6377;42.836;23.998;2023-02-11T07:11:09;97348.34;;;-7.69;100.00
12624;BME280;6377;42.836;23.998;2023-02-11T07:13:37;97371.00;;;-7.45;100.00
12624;BME280;6377;42.836;23.998;2023-02-11T07:16:05;97375.88;;;-7.29;100.00
12624;BME280;6377;42.836;23.998;2023-02-11T07:18:33;97375.50;;;-7.11;100.00
12624;BME280;6377;42.836;23.998;2023-02-11T07:21:03;97359.22;;;-7.12;100.00
12624;BME280;6377;42.836;23.998;2023-02-11T07:23:31;97323.38;;;-7.18;100.00
12624;BME280;6377;42.836;23.998;2023-02-11T07:26:02;97367.91;;;-6.76;100.00
12624;BME280;6377;42.836;23.998;2023-02-11T07:28:30;97364.59;;;-6.81;100.00
12624;BME280;6377;42.836;23.998;2023-02-11T07:30:57;97355.06;;;-6.77;100.00
12624;BME280;6377;42.836;23.998;2023-02-11T07:33:24;97369.91;;;-6.50;100.00
12624;BME280;6377;42.836;23.998;2023-02-11T07:35:53;97375.78;;;-6.44;100.00
12624;BME280;6377;42.836;23.998;2023-02-11T07:38:20;97357.63;;;-6.39;100.00
12624;BME280;6377;42.836;23.998;2023-02-11T07:40:47;97361.78;;;-6.32;100.00
12624;BME280;6377;42.836;23.998;2023-02-11T07:43:14;97388.81;;;-6.14;100.00
12624;BME280;6377;42.836;23.998;2023-02-11T07:45:42;97339.75;;;-6.10;100.00
12624;BME280;6377;42.836;23.998;2023-02-11T07:48:09;97317.38;;;-6.06;100.00
12624;BME280;6377;42.836;23.998;2023-02-11T07:50:36;97347.03;;;-5.90;100.00
12624;BME280;6377;42.836;23.998;2023-02-11T07:53:05;97341.47;;;-5.77;100.00
12624;BME280;6377;42.836;23.998;2023-02-11T07:55:32;97343.53;;;-5.57;100.00
12624;BME280;6377;42.836;23.998;2023-02-11T07:58:00;97341.63;;;-5.49;100.00
12624;BME280;6377;42.836;23.998;2023-02-11T08:00:27;97339.19;;;-5.24;100.00
12624;BME280;6377;42.836;23.998;2023-02-11T08:02:56;97378.69;;;-5.22;100.00
12624;BME280;6377;42.836;23.998;2023-02-11T08:05:23;97336.53;;;-5.21;100.00
12624;BME280;6377;42.836;23.998;2023-02-11T08:07:50;97334.28;;;-5.02;100.00
12624;BME280;6377;42.836;23.998;2023-02-11T08:10:19;97322.69;;;-4.88;100.00
12624;BME280;6377;42.836;23.998;2023-02-11T08:12:46;97333.44;;;-4.74;100.00
12624;BME280;6377;42.836;23.998;2023-02-11T08:17:49;97279.81;;;-4.66;100.00
12624;BME280;6377;42.836;23.998;2023-02-11T08:23:32;97320.03;;;-4.05;99.82
12624;BME280;6377;42.836;23.998;2023-02-11T08:26:02;97320.03;;;-4.05;100.00
12624;BME280;6377;42.836;23.998;2023-02-11T08:28:30;97319.63;;;-3.91;100.00
12624;BME280;6377;42.836;23.998;2023-02-11T08:30:57;97307.84;;;-3.75;99.48
12624;BME280;6377;42.836;23.998;2023-02-11T08:33:24;97312.09;;;-3.48;98.30
12624;BME280;6377;42.836;23.998;2023-02-11T08:35:51;97315.69;;;-3.28;95.66
12624;BME280;6377;42.836;23.998;2023-02-11T08:38:18;97272.88;;;-3.37;95.69
12624;BME280;6377;42.836;23.998;2023-02-11T08:43:15;97285.28;;;-3.22;95.20
12624;BME280;6377;42.836;23.998;2023-02-11T08:50:53;97271.88;;;-2.43;93.26
12624;BME280;6377;42.836;23.998;2023-02-11T08:53:20;97298.69;;;-2.01;91.74
12624;BME280;6377;42.836;23.998;2023-02-11T08:55:48;97297.84;;;-1.81;88.70
12624;BME280;6377;42.836;23.998;2023-02-11T08:58:17;97317.25;;;-1.49;86.62
12624;BME280;6377;42.836;23.998;2023-02-11T09:00:45;97196.78;;;-1.83;81.91
12624;BME280;6377;42.836;23.998;2023-02-11T09:03:12;97297.88;;;-0.83;78.29
12624;BME280;6377;42.836;23.998;2023-02-11T09:05:40;97180.00;;;-1.55;75.70
12624;BME280;6377;42.836;23.998;2023-02-11T09:08:08;97131.06;;;-1.63;75.97
12624;BME280;6377;42.836;23.998;2023-02-11T09:10:36;97277.47;;;-0.18;72.52
12624;BME280;6377;42.836;23.998;2023-02-11T09:13:04;97290.88;;;0.26;70.54
12624;BME280;6377;42.836;23.998;2023-02-11T09:15:34;97172.44;;;-0.32;63.10
12624;BME280;6377;42.836;23.998;2023-02-11T09:18:01;97249.75;;;0.50;63.07
12624;BME280;6377;42.836;23.998;2023-02-11T09:20:29;97113.00;;;-0.06;60.59
12624;BME280;6377;42.836;23.998;2023-02-11T09:22:57;97080.75;;;0.14;56.96
12624;BME280;6377;42.836;23.998;2023-02-11T09:25:25;97147.44;;;0.81;55.20
12624;BME280;6377;42.836;23.998;2023-02-11T09:27:52;97080.81;;;0.61;54.85
12624;BME280;6377;42.836;23.998;2023-02-11T09:30:20;97129.34;;;1.40;51.95
12624;BME280;6377;42.836;23.998;2023-02-11T09:32:49;97186.44;;;2.04;49.42
12624;BME280;6377;42.836;23.998;2023-02-11T09:35:16;97247.72;;;2.85;47.81
12624;BME280;6377;42.836;23.998;2023-02-11T09:37:43;97114.50;;;2.14;46.95
12624;BME280;6377;42.836;23.998;2023-02-11T09:40:11;97242.00;;;3.35;47.20
12624;BME280;6377;42.836;23.998;2023-02-11T09:42:45;97181.19;;;3.46;47.57
12624;BME280;6377;42.836;23.998;2023-02-11T09:45:17;97044.09;;;2.96;45.78
12624;BME280;6377;42.836;23.998;2023-02-11T09:47:50;97225.63;;;4.38;45.13
12624;BME280;6377;42.836;23.998;2023-02-11T09:50:22;97204.91;;;4.61;46.10
12624;BME280;6377;42.836;23.998;2023-02-11T09:52:55;97202.78;;;4.91;45.48
12624;BME280;6377;42.836;23.998;2023-02-11T09:55:26;97201.72;;;5.19;39.79
12624;BME280;6377;42.836;23.998;2023-02-11T09:57:54;97200.03;;;5.18;40.27
12624;BME280;6377;42.836;23.998;2023-02-11T10:00:24;97095.59;;;4.12;37.70
12624;BME280;6377;42.836;23.998;2023-02-11T10:06:36;97173.06;;;5.16;40.84
12624;BME280;6377;42.836;23.998;2023-02-11T10:09:16;97120.06;;;5.47;38.40
12624;BME280;6377;42.836;23.998;2023-02-11T10:11:52;97003.44;;;4.69;37.12
12624;BME280;6377;42.836;23.998;2023-02-11T10:14:41;97124.03;;;5.52;36.29
12624;BME280;6377;42.836;23.998;2023-02-11T10:17:23;97127.28;;;6.14;36.88
12624;BME280;6377;42.836;23.998;2023-02-11T10:20:06;97111.38;;;6.05;34.78
12624;BME280;6377;42.836;23.998;2023-02-11T10:22:43;97134.16;;;6.61;35.22
12624;BME280;6377;42.836;23.998;2023-02-11T10:25:19;97002.69;;;5.84;34.69
12624;BME280;6377;42.836;23.998;2023-02-11T10:27:47;96995.13;;;6.25;34.63
12624;BME280;6377;42.836;23.998;2023-02-11T10:30:21;97110.38;;;7.50;32.55
12624;BME280;6377;42.836;23.998;2023-02-11T10:32:54;97026.78;;;7.00;32.25
12624;BME280;6377;42.836;23.998;2023-02-11T10:35:24;96929.31;;;6.27;31.63
12624;BME280;6377;42.836;23.998;2023-02-11T10:37:54;96950.91;;;5.86;30.20
12624;BME280;6377;42.836;23.998;2023-02-11T10:40:23;96950.13;;;5.61;32.54
12624;BME280;6377;42.836;23.998;2023-02-11T10:42:52;96973.09;;;5.36;30.91
12624;BME280;6377;42.836;23.998;2023-02-11T10:50:27;97070.78;;;5.16;29.62
12624;BME280;6377;42.836;23.998;2023-02-11T10:53:11;97052.72;;;4.87;30.48
12624;BME280;6377;42.836;23.998;2023-02-11T10:55:48;96898.53;;;3.97;30.18
12624;BME280;6377;42.836;23.998;2023-02-11T10:58:23;97054.59;;;4.98;29.40
12624;BME280;6377;42.836;23.998;2023-02-11T11:03:20;97066.88;;;4.48;30.50
12624;BME280;6377;42.836;23.998;2023-02-11T11:05:50;96905.19;;;3.53;30.80
12624;BME280;6377;42.836;23.998;2023-02-11T11:08:19;97005.28;;;4.43;31.66
12624;BME280;6377;42.836;23.998;2023-02-11T11:10:47;97046.28;;;5.04;29.33
12624;BME280;6377;42.836;23.998;2023-02-11T11:13:27;96845.34;;;3.97;30.97
12624;BME280;6377;42.836;23.998;2023-02-11T11:16:18;97033.22;;;5.15;31.63
12624;BME280;6377;42.836;23.998;2023-02-11T11:18:47;96908.16;;;4.46;31.28
12624;BME280;6377;42.836;23.998;2023-02-11T11:21:18;96900.16;;;4.47;30.78
12624;BME280;6377;42.836;23.998;2023-02-11T11:23:50;96903.66;;;4.35;30.99
12624;BME280;6377;42.836;23.998;2023-02-11T11:26:19;96951.19;;;4.78;34.04
12624;BME280;6377;42.836;23.998;2023-02-11T11:28:52;96953.06;;;5.00;35.50
12624;BME280;6377;42.836;23.998;2023-02-11T11:31:22;96830.69;;;4.66;34.37
12624;BME280;6377;42.836;23.998;2023-02-11T11:33:51;96898.53;;;4.81;35.06
12624;BME280;6377;42.836;23.998;2023-02-11T11:36:22;97020.88;;;5.98;36.24
12624;BME280;6377;42.836;23.998;2023-02-11T11:38:54;97013.13;;;6.18;36.64
12624;BME280;6377;42.836;23.998;2023-02-11T11:41:25;96981.50;;;5.87;37.02
12624;BME280;6377;42.836;23.998;2023-02-11T11:43:58;97007.88;;;6.07;37.96
12624;BME280;6377;42.836;23.998;2023-02-11T11:46:29;97012.91;;;6.33;35.32
12624;BME280;6377;42.836;23.998;2023-02-11T11:49:16;96974.63;;;5.84;36.28
12624;BME280;6377;42.836;23.998;2023-02-11T11:51:52;97005.72;;;6.24;37.27
12624;BME280;6377;42.836;23.998;2023-02-11T11:54:24;96980.44;;;6.88;37.37
12624;BME280;6377;42.836;23.998;2023-02-11T11:56:57;96992.88;;;7.49;35.21
12624;BME280;6377;42.836;23.998;2023-02-11T11:59:27;96956.25;;;7.57;34.50
12624;BME280;6377;42.836;23.998;2023-02-11T12:05:00;96956.03;;;6.97;36.26
12624;BME280;6377;42.836;23.998;2023-02-11T12:07:44;96963.66;;;7.31;36.59
12624;BME280;6377;42.836;23.998;2023-02-11T12:10:26;96981.59;;;7.58;35.85
12624;BME280;6377;42.836;23.998;2023-02-11T12:13:06;96957.00;;;7.48;37.27
12624;BME280;6377;42.836;23.998;2023-02-11T12:15:39;96928.47;;;7.32;36.50
12624;BME280;6377;42.836;23.998;2023-02-11T12:18:21;96962.19;;;8.10;34.92
12624;BME280;6377;42.836;23.998;2023-02-11T12:21:09;96954.13;;;8.63;35.52
12624;BME280;6377;42.836;23.998;2023-02-11T12:23:49;96949.09;;;8.69;33.68
12624;BME280;6377;42.836;23.998;2023-02-11T12:26:23;96947.91;;;8.83;34.40
12624;BME280;6377;42.836;23.998;2023-02-11T12:29:02;96948.66;;;8.45;34.25
12624;BME280;6377;42.836;23.998;2023-02-11T12:31:42;96941.28;;;8.49;35.04
12624;BME280;6377;42.836;23.998;2023-02-11T12:34:53;96934.28;;;8.68;36.08
12624;BME280;6377;42.836;23.998;2023-02-11T12:37:35;96911.56;;;8.37;34.55
12624;BME280;6377;42.836;23.998;2023-02-11T12:40:14;96920.00;;;8.31;35.25
12624;BME280;6377;42.836;23.998;2023-02-11T12:42:59;96939.91;;;7.63;35.23
12624;BME280;6377;42.836;23.998;2023-02-11T12:45:48;96932.44;;;6.74;36.83
12624;BME280;6377;42.836;23.998;2023-02-11T12:48:36;96923.41;;;6.34;38.57
12624;BME280;6377;42.836;23.998;2023-02-11T12:51:13;96912.09;;;5.78;37.66
12624;BME280;6377;42.836;23.998;2023-02-11T12:53:53;96918.88;;;5.47;39.37
12624;BME280;6377;42.836;23.998;2023-02-11T12:56:30;96935.41;;;5.02;39.64
12624;BME280;6377;42.836;23.998;2023-02-11T12:59:03;96921.91;;;4.84;41.21
12624;BME280;6377;42.836;23.998;2023-02-11T13:01:34;96909.53;;;4.39;41.02
12624;BME280;6377;42.836;23.998;2023-02-11T13:04:06;96921.56;;;4.41;42.50
12624;BME280;6377;42.836;23.998;2023-02-11T13:06:40;96929.34;;;4.30;42.25
12624;BME280;6377;42.836;23.998;2023-02-11T13:09:13;96922.09;;;4.10;43.48
12624;BME280;6377;42.836;23.998;2023-02-11T13:11:52;96904.63;;;3.85;42.73
12624;BME280;6377;42.836;23.998;2023-02-11T13:14:24;96905.81;;;3.81;42.16
12624;BME280;6377;42.836;23.998;2023-02-11T13:16:53;96879.56;;;3.58;42.88
12624;BME280;6377;42.836;23.998;2023-02-11T13:19:25;96896.19;;;3.57;44.59
12624;BME280;6377;42.836;23.998;2023-02-11T13:22:01;96915.78;;;3.64;43.36
12624;BME280;6377;42.836;23.998;2023-02-11T13:24:37;96913.56;;;3.58;44.10
12624;BME280;6377;42.836;23.998;2023-02-11T13:27:17;96909.81;;;3.49;42.67
12624;BME280;6377;42.836;23.998;2023-02-11T13:30:21;96905.94;;;3.42;42.22
12624;BME280;6377;42.836;23.998;2023-02-11T13:33:19;96905.22;;;3.40;42.94
12624;BME280;6377;42.836;23.998;2023-02-11T13:35:48;96876.97;;;3.20;42.75
12624;BME280;6377;42.836;23.998;2023-02-11T13:38:36;96865.44;;;3.10;42.74
12624;BME280;6377;42.836;23.998;2023-02-11T13:41:06;96900.03;;;3.26;43.05
12624;BME280;6377;42.836;23.998;2023-02-11T13:43:41;96867.34;;;3.08;41.70
12624;BME280;6377;42.836;23.998;2023-02-11T13:46:12;96855.72;;;2.99;43.07
12624;BME280;6377;42.836;23.998;2023-02-11T13:48:46;96866.19;;;2.99;43.36